sensor_id;sensor_type;location;lat;lon;timestamp;pressure;altitude;pressure_sealevel;temperature;humidity
12897;BME280;6516;35.028;32.372;2023-07-13T00:00:00;99719.84;;;24.52;43.58
12897;BME280;6516;35.028;32.372;2023-07-13T00:02:30;99720.59;;;24.54;43.40
12897;BME280;6516;35.028;32.372;2023-07-13T00:04:58;99721.19;;;24.58;43.24
12897;BME280;6516;35.028;32.372;2023-07-13T00:07:26;99721.47;;;24.66;43.28
12897;BME280;6516;35.028;32.372;2023-07-13T00:09:54;99720.47;;;24.67;43.01
12897;BME280;6516;35.028;32.372;2023-07-13T00:12:24;99715.47;;;24.62;42.95
12897;BME280;6516;35.028;32.372;2023-07-13T00:14:53;99712.78;;;24.62;42.86
12897;BME280;6516;35.028;32.372;2023-07-13T00:17:21;99708.50;;;24.60;43.04
12897;BME280;6516;35.028;32.372;2023-07-13T00:19:50;99704.44;;;24.65;42.88
12897;BME280;6516;35.028;32.372;2023-07-13T00:22:18;99704.72;;;24.62;42.90
12897;BME280;6516;35.028;32.372;2023-07-13T00:24:46;99701.50;;;24.57;43.09
12897;BME280;6516;35.028;32.372;2023-07-13T00:27:14;99700.28;;;24.72;42.29
12897;BME280;6516;35.028;32.372;2023-07-13T00:29:43;99701.09;;;24.73;42.65
12897;BME280;6516;35.028;32.372;2023-07-13T00:32:11;99704.06;;;24.70;42.33
12897;BME280;6516;35.028;32.372;2023-07-13T00:34:39;99699.81;;;24.67;42.24
12897;BME280;6516;35.028;32.372;2023-07-13T00:37:09;99692.72;;;24.66;42.12
12897;BME280;6516;35.028;32.372;2023-07-13T00:39:36;99701.75;;;24.65;42.13
12897;BME280;6516;35.028;32.372;2023-07-13T00:42:05;99701.75;;;24.65;41.93
12897;BME280;6516;35.028;32.372;2023-07-13T00:44:33;99704.31;;;24.67;42.40
12897;BME280;6516;35.028;32.372;2023-07-13T00:47:01;99707.41;;;24.62;41.99
12897;BME280;6516;35.028;32.372;2023-07-13T00:49:30;99701.16;;;24.51;41.93
12897;BME280;6516;35.028;32.372;2023-07-13T00:52:04;99697.84;;;24.47;42.18
12897;BME280;6516;35.028;32.372;2023-07-13T00:54:37;99697.13;;;24.45;42.31
12897;BME280;6516;35.028;32.372;2023-07-13T00:57:09;99699.06;;;24.43;42.28
12897;BME280;6516;35.028;32.372;2023-07-13T00:59:42;99702.63;;;24.44;42.00
12897;BME280;6516;35.028;32.372;2023-07-13T01:02:14;99692.59;;;24.46;41.94
12897;BME280;6516;35.028;32.372;2023-07-13T01:04:42;99692.09;;;24.41;41.96
12897;BME280;6516;35.028;32.372;2023-07-13T01:07:10;99695.06;;;24.38;41.59
12897;BME280;6516;35.028;32.372;2023-07-13T01:09:40;99698.84;;;24.35;41.92
12897;BME280;6516;35.028;32.372;2023-07-13T01:12:08;99695.19;;;24.36;41.72
12897;BME280;6516;35.028;32.372;2023-07-13T01:14:36;99696.88;;;24.37;41.34
12897;BME280;6516;35.028;32.372;2023-07-13T01:17:04;99694.94;;;24.39;41.63
12897;BME280;6516;35.028;32.372;2023-07-13T01:19:35;99686.72;;;24.41;41.41
12897;BME280;6516;35.028;32.372;2023-07-13T01:22:08;99688.69;;;24.39;41.12
12897;BME280;6516;35.028;32.372;2023-07-13T01:24:40;99682.44;;;24.38;41.05
12897;BME280;6516;35.028;32.372;2023-07-13T01:27:09;99681.59;;;24.38;41.33
12897;BME280;6516;35.028;32.372;2023-07-13T01:29:39;99683.31;;;24.39;41.20
12897;BME280;6516;35.028;32.372;2023-07-13T01:32:09;99684.66;;;24.44;41.16
12897;BME280;6516;35.028;32.372;2023-07-13T01:34:38;99687.53;;;24.52;40.49
12897;BME280;6516;35.028;32.372;2023-07-13T01:37:09;99684.03;;;24.52;40.35
12897;BME280;6516;35.028;32.372;2023-07-13T01:39:37;99684.03;;;24.52;40.25
12897;BME280;6516;35.028;32.372;2023-07-13T01:42:06;99678.50;;;24.53;40.51
12897;BME280;6516;35.028;32.372;2023-07-13T01:44:34;99682.44;;;24.60;39.92
12897;BME280;6516;35.028;32.372;2023-07-13T01:47:03;99679.72;;;24.60;40.07
12897;BME280;6516;35.028;32.372;2023-07-13T01:49:31;99681.44;;;24.61;39.99
12897;BME280;6516;35.028;32.372;2023-07-13T01:51:59;99679.50;;;24.63;39.96
12897;BME280;6516;35.028;32.372;2023-07-13T01:54:28;99676.06;;;24.61;40.04
12897;BME280;6516;35.028;32.372;2023-07-13T01:56:56;99684.63;;;24.66;39.94
12897;BME280;6516;35.028;32.372;2023-07-13T01:59:24;99679.72;;;24.71;40.00
12897;BME280;6516;35.028;32.372;2023-07-13T02:01:51;99683.53;;;24.69;39.90
12897;BME280;6516;35.028;32.372;2023-07-13T02:04:19;99683.28;;;24.61;39.97
12897;BME280;6516;35.028;32.372;2023-07-13T02:06:47;99687.06;;;24.58;39.95
12897;BME280;6516;35.028;32.372;2023-07-13T02:09:14;99681.59;;;24.60;39.69
12897;BME280;6516;35.028;32.372;2023-07-13T02:11:44;99689.75;;;24.58;39.92
12897;BME280;6516;35.028;32.372;2023-07-13T02:14:11;99687.91;;;24.59;40.03
12897;BME280;6516;35.028;32.372;2023-07-13T02:16:41;99679.00;;;24.58;39.75
12897;BME280;6516;35.028;32.372;2023-07-13T02:19:08;99684.50;;;24.57;39.62
12897;BME280;6516;35.028;32.372;2023-07-13T02:21:36;99679.47;;;24.52;39.64
12897;BME280;6516;35.028;32.372;2023-07-13T02:24:04;99684.03;;;24.52;39.54
12897;BME280;6516;35.028;32.372;2023-07-13T02:26:32;99685.84;;;24.51;39.45
12897;BME280;6516;35.028;32.372;2023-07-13T02:29:01;99687.94;;;24.48;39.44
12897;BME280;6516;35.028;32.372;2023-07-13T02:31:29;99683.16;;;24.51;39.66
12897;BME280;6516;35.028;32.372;2023-07-13T02:33:57;99690.97;;;24.54;39.36
12897;BME280;6516;35.028;32.372;2023-07-13T02:36:25;99691.50;;;24.48;39.47
12897;BME280;6516;35.028;32.372;2023-07-13T02:38:52;99695.91;;;24.38;39.70
12897;BME280;6516;35.028;32.372;2023-07-13T02:41:20;99685.16;;;24.27;39.87
12897;BME280;6516;35.028;32.372;2023-07-13T02:43:48;99687.09;;;24.36;39.31
12897;BME280;6516;35.028;32.372;2023-07-13T02:46:17;99683.91;;;24.42;39.37
12897;BME280;6516;35.028;32.372;2023-07-13T02:48:45;99691.50;;;24.37;39.17
12897;BME280;6516;35.028;32.372;2023-07-13T02:51:13;99686.22;;;24.36;39.38
12897;BME280;6516;35.028;32.372;2023-07-13T02:53:41;99695.41;;;24.44;38.95
12897;BME280;6516;35.028;32.372;2023-07-13T02:56:09;99694.19;;;24.48;38.99
12897;BME280;6516;35.028;32.372;2023-07-13T02:58:36;99697.34;;;24.42;38.92
12897;BME280;6516;35.028;32.372;2023-07-13T03:01:07;99692.38;;;24.38;39.25
12897;BME280;6516;35.028;32.372;2023-07-13T03:03:37;99685.88;;;24.40;39.14
12897;BME280;6516;35.028;32.372;2023-07-13T03:06:05;99688.41;;;24.53;38.75
12897;BME280;6516;35.028;32.372;2023-07-13T03:08:34;99689.75;;;24.58;38.90
12897;BME280;6516;35.028;32.372;2023-07-13T03:11:03;99692.56;;;24.57;39.04
12897;BME280;6516;35.028;32.372;2023-07-13T03:13:32;99689.88;;;24.57;39.09
12897;BME280;6516;35.028;32.372;2023-07-13T03:16:00;99692.34;;;24.60;38.49
12897;BME280;6516;35.028;32.372;2023-07-13T03:18:28;99694.41;;;24.67;38.70
12897;BME280;6516;35.028;32.372;2023-07-13T03:20:57;99701.72;;;24.76;38.37
12897;BME280;6516;35.028;32.372;2023-07-13T03:23:25;99696.41;;;24.86;38.28
12897;BME280;6516;35.028;32.372;2023-07-13T03:26:01;99697.03;;;24.89;38.27
12897;BME280;6516;35.028;32.372;2023-07-13T03:28:31;99693.69;;;24.97;37.97
12897;BME280;6516;35.028;32.372;2023-07-13T03:31:02;99701.38;;;25.01;38.08
12897;BME280;6516;35.028;32.372;2023-07-13T03:33:32;99698.91;;;25.09;38.12
12897;BME280;6516;35.028;32.372;2023-07-13T03:36:01;99696.31;;;25.19;37.41
12897;BME280;6516;35.028;32.372;2023-07-13T03:38:30;99685.97;;;25.24;37.93
12897;BME280;6516;35.028;32.372;2023-07-13T03:40:57;99689.50;;;25.35;37.50
12897;BME280;6516;35.028;32.372;2023-07-13T03:43:25;99691.63;;;25.52;36.97
12897;BME280;6516;35.028;32.372;2023-07-13T03:45:53;99694.69;;;25.68;36.67
12897;BME280;6516;35.028;32.372;2023-07-13T03:48:21;99694.75;;;25.78;36.98
12897;BME280;6516;35.028;32.372;2023-07-13T03:50:49;99693.94;;;25.87;36.79
12897;BME280;6516;35.028;32.372;2023-07-13T03:53:18;99694.75;;;25.98;37.11
12897;BME280;6516;35.028;32.372;2023-07-13T03:55:46;99695.63;;;26.08;37.35
12897;BME280;6516;35.028;32.372;2023-07-13T03:58:30;99697.25;;;26.20;37.41
12897;BME280;6516;35.028;32.372;2023-07-13T04:00:59;99692.19;;;26.36;37.02
12897;BME280;6516;35.028;32.372;2023-07-13T04:03:28;99694.75;;;26.47;36.84
12897;BME280;6516;35.028;32.372;2023-07-13T04:05:58;99690.72;;;26.62;36.73
12897;BME280;6516;35.028;32.372;2023-07-13T04:08:29;99694.59;;;26.79;36.71
12897;BME280;6516;35.028;32.372;2023-07-13T04:10:58;99692.75;;;26.98;36.08
12897;BME280;6516;35.028;32.372;2023-07-13T04:13:26;99695.72;;;27.14;36.07
12897;BME280;6516;35.028;32.372;2023-07-13T04:15:54;99690.78;;;27.29;36.39
12897;BME280;6516;35.028;32.372;2023-07-13T04:18:23;99696.63;;;27.44;35.82
12897;BME280;6516;35.028;32.372;2023-07-13T04:20:50;99699.00;;;27.56;35.52
12897;BME280;6516;35.028;32.372;2023-07-13T04:23:19;99707.53;;;27.71;35.37
12897;BME280;6516;35.028;32.372;2023-07-13T04:25:49;99713.94;;;27.89;34.58
12897;BME280;6516;35.028;32.372;2023-07-13T04:28:20;99705.59;;;28.09;34.42
12897;BME280;6516;35.028;32.372;2023-07-13T04:30:48;99704.06;;;28.34;33.24
12897;BME280;6516;35.028;32.372;2023-07-13T04:33:16;99705.41;;;28.57;33.57
12897;BME280;6516;35.028;32.372;2023-07-13T04:35:48;99707.66;;;28.79;33.59
12897;BME280;6516;35.028;32.372;2023-07-13T04:38:15;99708.53;;;28.97;32.97
12897;BME280;6516;35.028;32.372;2023-07-13T04:40:45;99704.63;;;29.26;31.88
12897;BME280;6516;35.028;32.372;2023-07-13T04:43:14;99710.97;;;29.52;31.91
12897;BME280;6516;35.028;32.372;2023-07-13T04:45:42;99705.91;;;30.00;30.13
12897;BME280;6516;35.028;32.372;2023-07-13T04:48:10;99711.59;;;30.40;30.08
12897;BME280;6516;35.028;32.372;2023-07-13T04:50:38;99702.72;;;30.72;29.16
12897;BME280;6516;35.028;32.372;2023-07-13T04:53:06;99713.00;;;31.02;28.87
12897;BME280;6516;35.028;32.372;2023-07-13T04:55:34;99709.31;;;31.27;28.60
12897;BME280;6516;35.028;32.372;2023-07-13T04:58:02;99708.00;;;31.79;27.67
12897;BME280;6516;35.028;32.372;2023-07-13T05:00:31;99706.03;;;32.35;26.48
12897;BME280;6516;35.028;32.372;2023-07-13T05:02:59;99708.00;;;32.88;25.84
12897;BME280;6516;35.028;32.372;2023-07-13T05:05:27;99706.13;;;33.64;25.58
12897;BME280;6516;35.028;32.372;2023-07-13T05:07:55;99710.75;;;34.30;24.34
12897;BME280;6516;35.028;32.372;2023-07-13T05:10:23;99712.38;;;34.82;24.33
12897;BME280;6516;35.028;32.372;2023-07-13T05:12:51;99704.75;;;35.34;22.46
12897;BME280;6516;35.028;32.372;2023-07-13T05:15:21;99704.91;;;35.96;22.58
12897;BME280;6516;35.028;32.372;2023-07-13T05:17:51;99706.06;;;36.42;20.85
12897;BME280;6516;35.028;32.372;2023-07-13T05:20:21;99701.88;;;36.86;19.08
12897;BME280;6516;35.028;32.372;2023-07-13T05:22:49;99702.66;;;37.21;19.69
12897;BME280;6516;35.028;32.372;2023-07-13T05:25:17;99711.81;;;37.60;18.33
12897;BME280;6516;35.028;32.372;2023-07-13T05:27:45;99704.59;;;37.98;17.80
12897;BME280;6516;35.028;32.372;2023-07-13T05:30:13;99708.59;;;38.35;17.48
12897;BME280;6516;35.028;32.372;2023-07-13T05:32:41;99705.31;;;38.77;17.16
12897;BME280;6516;35.028;32.372;2023-07-13T05:35:10;99701.03;;;38.87;16.78
12897;BME280;6516;35.028;32.372;2023-07-13T05:37:38;99707.06;;;39.15;16.88
12897;BME280;6516;35.028;32.372;2023-07-13T05:40:07;99704.66;;;39.32;16.92
12897;BME280;6516;35.028;32.372;2023-07-13T05:42:35;99695.69;;;39.67;16.70
12897;BME280;6516;35.028;32.372;2023-07-13T05:45:03;99704.84;;;39.93;16.61
12897;BME280;6516;35.028;32.372;2023-07-13T05:47:31;99698.06;;;39.89;16.62
12897;BME280;6516;35.028;32.372;2023-07-13T05:49:59;99716.03;;;39.98;15.94
12897;BME280;6516;35.028;32.372;2023-07-13T05:52:28;99700.34;;;39.67;14.74
12897;BME280;6516;35.028;32.372;2023-07-13T05:54:56;99701.53;;;39.53;15.80
12897;BME280;6516;35.028;32.372;2023-07-13T05:57:24;99710.88;;;39.52;16.12
12897;BME280;6516;35.028;32.372;2023-07-13T05:59:52;99716.84;;;39.49;15.96
12897;BME280;6516;35.028;32.372;2023-07-13T06:02:19;99709.41;;;39.49;15.70
12897;BME280;6516;35.028;32.372;2023-07-13T06:04:47;99711.09;;;39.50;15.15
12897;BME280;6516;35.028;32.372;2023-07-13T06:07:15;99710.84;;;39.21;15.39
12897;BME280;6516;35.028;32.372;2023-07-13T06:09:44;99710.06;;;39.07;14.99
12897;BME280;6516;35.028;32.372;2023-07-13T06:12:12;99711.00;;;38.88;14.59
12897;BME280;6516;35.028;32.372;2023-07-13T06:14:39;99717.84;;;38.66;15.82
12897;BME280;6516;35.028;32.372;2023-07-13T06:17:07;99717.22;;;38.64;15.96
12897;BME280;6516;35.028;32.372;2023-07-13T06:19:35;99710.88;;;38.64;15.56
12897;BME280;6516;35.028;32.372;2023-07-13T06:22:03;99710.00;;;38.76;15.90
12897;BME280;6516;35.028;32.372;2023-07-13T06:24:32;99709.53;;;38.79;15.11
12897;BME280;6516;35.028;32.372;2023-07-13T06:27:01;99715.84;;;38.99;15.37
12897;BME280;6516;35.028;32.372;2023-07-13T06:29:28;99708.81;;;39.03;15.82
12897;BME280;6516;35.028;32.372;2023-07-13T06:31:57;99711.06;;;39.19;15.62
12897;BME280;6516;35.028;32.372;2023-07-13T06:34:24;99713.56;;;39.27;15.25
12897;BME280;6516;35.028;32.372;2023-07-13T06:36:52;99705.59;;;39.50;15.19
12897;BME280;6516;35.028;32.372;2023-07-13T06:39:20;99713.38;;;39.53;15.15
12897;BME280;6516;35.028;32.372;2023-07-13T06:41:48;99705.59;;;39.82;15.00
12897;BME280;6516;35.028;32.372;2023-07-13T06:44:17;99707.47;;;40.06;14.23
12897;BME280;6516;35.028;32.372;2023-07-13T06:46:45;99708.06;;;40.32;14.98
12897;BME280;6516;35.028;32.372;2023-07-13T06:49:12;99715.31;;;40.33;14.48
12897;BME280;6516;35.028;32.372;2023-07-13T06:51:40;99710.50;;;40.65;14.55
12897;BME280;6516;35.028;32.372;2023-07-13T06:54:08;99718.19;;;40.63;14.91
12897;BME280;6516;35.028;32.372;2023-07-13T06:56:36;99714.78;;;40.79;14.84
12897;BME280;6516;35.028;32.372;2023-07-13T06:59:03;99713.25;;;40.83;14.65
12897;BME280;6516;35.028;32.372;2023-07-13T07:01:32;99707.63;;;40.89;14.49
12897;BME280;6516;35.028;32.372;2023-07-13T07:04:00;99727.84;;;40.90;14.75
12897;BME280;6516;35.028;32.372;2023-07-13T07:06:28;99718.00;;;40.76;15.35
12897;BME280;6516;35.028;32.372;2023-07-13T07:08:56;99719.16;;;40.68;14.94
12897;BME280;6516;35.028;32.372;2023-07-13T07:11:25;99721.16;;;40.61;14.58
12897;BME280;6516;35.028;32.372;2023-07-13T07:13:53;99721.78;;;40.63;15.59
12897;BME280;6516;35.028;32.372;2023-07-13T07:16:21;99718.94;;;40.70;15.11
12897;BME280;6516;35.028;32.372;2023-07-13T07:18:50;99722.53;;;40.70;14.21
12897;BME280;6516;35.028;32.372;2023-07-13T07:21:18;99728.16;;;40.64;14.68
12897;BME280;6516;35.028;32.372;2023-07-13T07:23:48;99720.94;;;40.63;15.05
12897;BME280;6516;35.028;32.372;2023-07-13T07:26:16;99718.34;;;40.68;14.49
12897;BME280;6516;35.028;32.372;2023-07-13T07:28:44;99721.38;;;40.78;15.75
12897;BME280;6516;35.028;32.372;2023-07-13T07:31:12;99717.53;;;40.79;15.36
12897;BME280;6516;35.028;32.372;2023-07-13T07:33:39;99719.84;;;40.82;15.07
12897;BME280;6516;35.028;32.372;2023-07-13T07:36:09;99715.94;;;40.89;15.22
12897;BME280;6516;35.028;32.372;2023-07-13T07:38:37;99718.78;;;40.83;15.97
12897;BME280;6516;35.028;32.372;2023-07-13T07:41:05;99720.00;;;40.87;14.77
12897;BME280;6516;35.028;32.372;2023-07-13T07:43:33;99712.06;;;40.90;15.15
12897;BME280;6516;35.028;32.372;2023-07-13T07:46:02;99716.06;;;40.94;15.00
12897;BME280;6516;35.028;32.372;2023-07-13T07:48:30;99717.59;;;40.90;15.80
12897;BME280;6516;35.028;32.372;2023-07-13T07:50:58;99720.00;;;41.05;15.86
12897;BME280;6516;35.028;32.372;2023-07-13T07:53:28;99719.47;;;41.26;15.58
12897;BME280;6516;35.028;32.372;2023-07-13T07:55:55;99715.84;;;40.96;15.57
12897;BME280;6516;35.028;32.372;2023-07-13T07:58:23;99730.13;;;41.11;16.16
12897;BME280;6516;35.028;32.372;2023-07-13T08:00:51;99715.75;;;41.20;15.89
12897;BME280;6516;35.028;32.372;2023-07-13T08:03:19;99724.50;;;41.17;16.28
12897;BME280;6516;35.028;32.372;2023-07-13T08:05:46;99726.72;;;41.27;15.58
12897;BME280;6516;35.028;32.372;2023-07-13T08:08:14;99723.59;;;41.35;15.55
12897;BME280;6516;35.028;32.372;2023-07-13T08:10:44;99726.28;;;41.41;15.54
12897;BME280;6516;35.028;32.372;2023-07-13T08:13:11;99716.97;;;41.54;15.28
12897;BME280;6516;35.028;32.372;2023-07-13T08:15:39;99716.38;;;41.63;15.56
12897;BME280;6516;35.028;32.372;2023-07-13T08:18:07;99719.53;;;41.67;15.40
12897;BME280;6516;35.028;32.372;2023-07-13T08:20:37;99714.13;;;41.72;15.29
12897;BME280;6516;35.028;32.372;2023-07-13T08:23:05;99712.69;;;41.69;15.96
12897;BME280;6516;35.028;32.372;2023-07-13T08:25:33;99717.47;;;41.74;16.21
12897;BME280;6516;35.028;32.372;2023-07-13T08:28:03;99712.00;;;41.85;15.94
12897;BME280;6516;35.028;32.372;2023-07-13T08:30:31;99724.28;;;42.01;16.45
12897;BME280;6516;35.028;32.372;2023-07-13T08:32:59;99718.03;;;42.17;16.35
12897;BME280;6516;35.028;32.372;2023-07-13T08:35:26;99720.44;;;42.36;16.49
12897;BME280;6516;35.028;32.372;2023-07-13T08:37:54;99718.19;;;42.22;16.27
12897;BME280;6516;35.028;32.372;2023-07-13T08:40:25;99715.53;;;42.27;16.42
12897;BME280;6516;35.028;32.372;2023-07-13T08:42:54;99714.78;;;42.20;16.44
12897;BME280;6516;35.028;32.372;2023-07-13T08:45:29;99722.75;;;42.28;17.70
12897;BME280;6516;35.028;32.372;2023-07-13T08:48:03;99715.66;;;42.20;17.56
12897;BME280;6516;35.028;32.372;2023-07-13T08:50:42;99717.78;;;42.18;17.31
12897;BME280;6516;35.028;32.372;2023-07-13T08:53:17;99715.41;;;42.10;17.35
12897;BME280;6516;35.028;32.372;2023-07-13T08:55:45;99711.78;;;42.10;17.84
12897;BME280;6516;35.028;32.372;2023-07-13T08:58:14;99718.16;;;42.10;17.87
12897;BME280;6516;35.028;32.372;2023-07-13T09:00:50;99712.97;;;42.14;18.46
12897;BME280;6516;35.028;32.372;2023-07-13T09:03:26;99710.94;;;42.21;18.12
12897;BME280;6516;35.028;32.372;2023-07-13T09:05:59;99710.44;;;42.12;18.81
12897;BME280;6516;35.028;32.372;2023-07-13T09:08:41;99711.88;;;42.15;18.31
12897;BME280;6516;35.028;32.372;2023-07-13T09:11:26;99704.81;;;42.30;18.40
12897;BME280;6516;35.028;32.372;2023-07-13T09:14:06;99706.03;;;42.23;17.74
12897;BME280;6516;35.028;32.372;2023-07-13T09:16:50;99701.31;;;42.23;18.09
12897;BME280;6516;35.028;32.372;2023-07-13T09:19:22;99700.56;;;42.16;16.82
12897;BME280;6516;35.028;32.372;2023-07-13T09:21:54;99701.19;;;42.30;17.38
12897;BME280;6516;35.028;32.372;2023-07-13T09:24:35;99700.72;;;42.33;17.52
12897;BME280;6516;35.028;32.372;2023-07-13T09:27:14;99697.09;;;42.21;17.43
12897;BME280;6516;35.028;32.372;2023-07-13T09:29:48;99698.28;;;42.36;17.65
12897;BME280;6516;35.028;32.372;2023-07-13T09:32:21;99707.56;;;42.42;17.86
12897;BME280;6516;35.028;32.372;2023-07-13T09:34:51;99700.94;;;42.31;18.19
12897;BME280;6516;35.028;32.372;2023-07-13T09:37:21;99702.75;;;42.49;18.30
12897;BME280;6516;35.028;32.372;2023-07-13T09:39:53;99702.13;;;42.12;18.06
12897;BME280;6516;35.028;32.372;2023-07-13T09:42:22;99703.38;;;42.28;18.53
12897;BME280;6516;35.028;32.372;2023-07-13T09:44:53;99704.78;;;42.53;17.13
12897;BME280;6516;35.028;32.372;2023-07-13T09:47:25;99697.81;;;42.62;17.76
12897;BME280;6516;35.028;32.372;2023-07-13T09:49:55;99698.88;;;42.73;17.37
12897;BME280;6516;35.028;32.372;2023-07-13T09:52:28;99702.75;;;42.72;17.33
12897;BME280;6516;35.028;32.372;2023-07-13T09:55:23;99692.59;;;42.66;17.62
12897;BME280;6516;35.028;32.372;2023-07-13T09:57:52;99712.00;;;42.54;18.22
12897;BME280;6516;35.028;32.372;2023-07-13T10:00:24;99699.50;;;42.40;18.32
12897;BME280;6516;35.028;32.372;2023-07-13T10:03:04;99702.88;;;42.54;17.56
12897;BME280;6516;35.028;32.372;2023-07-13T10:05:40;99696.94;;;42.62;16.79
12897;BME280;6516;35.028;32.372;2023-07-13T10:08:21;99706.81;;;42.81;16.91
12897;BME280;6516;35.028;32.372;2023-07-13T10:10:57;99699.81;;;42.78;16.81
12897;BME280;6516;35.028;32.372;2023-07-13T10:13:29;99696.41;;;42.88;17.14
12897;BME280;6516;35.028;32.372;2023-07-13T10:16:00;99695.06;;;42.90;16.99
12897;BME280;6516;35.028;32.372;2023-07-13T10:18:38;99702.47;;;42.85;17.78
12897;BME280;6516;35.028;32.372;2023-07-13T10:21:16;99695.22;;;42.84;17.80
12897;BME280;6516;35.028;32.372;2023-07-13T10:23:48;99688.59;;;42.85;17.55
12897;BME280;6516;35.028;32.372;2023-07-13T10:26:29;99688.19;;;42.93;17.61
12897;BME280;6516;35.028;32.372;2023-07-13T10:29:03;99688.63;;;43.13;17.41
12897;BME280;6516;35.028;32.372;2023-07-13T10:31:34;99687.63;;;43.19;17.36
12897;BME280;6516;35.028;32.372;2023-07-13T10:34:09;99691.59;;;43.23;17.46
12897;BME280;6516;35.028;32.372;2023-07-13T10:36:40;99682.00;;;43.42;16.32
12897;BME280;6516;35.028;32.372;2023-07-13T10:39:16;99681.19;;;43.58;16.59
12897;BME280;6516;35.028;32.372;2023-07-13T10:41:49;99670.97;;;43.47;16.17
12897;BME280;6516;35.028;32.372;2023-07-13T10:44:24;99675.25;;;43.54;16.48
12897;BME280;6516;35.028;32.372;2023-07-13T10:46:57;99671.16;;;43.57;16.42
12897;BME280;6516;35.028;32.372;2023-07-13T10:49:30;99674.47;;;43.87;15.97
12897;BME280;6516;35.028;32.372;2023-07-13T10:51:58;99672.94;;;43.96;15.32
12897;BME280;6516;35.028;32.372;2023-07-13T10:54:28;99666.53;;;44.12;15.08
12897;BME280;6516;35.028;32.372;2023-07-13T10:57:15;99672.28;;;44.22;16.24
12897;BME280;6516;35.028;32.372;2023-07-13T10:59:47;99662.59;;;44.24;15.80
12897;BME280;6516;35.028;32.372;2023-07-13T11:02:24;99669.50;;;44.22;17.30
12897;BME280;6516;35.028;32.372;2023-07-13T11:04:55;99666.41;;;44.18;16.59
12897;BME280;6516;35.028;32.372;2023-07-13T11:07:26;99663.59;;;44.02;16.74
12897;BME280;6516;35.028;32.372;2023-07-13T11:09:56;99665.03;;;43.88;16.69
12897;BME280;6516;35.028;32.372;2023-07-13T11:12:50;99663.38;;;43.87;16.95
12897;BME280;6516;35.028;32.372;2023-07-13T11:15:31;99663.88;;;44.00;16.48
12897;BME280;6516;35.028;32.372;2023-07-13T11:18:19;99656.44;;;43.73;17.02
12897;BME280;6516;35.028;32.372;2023-07-13T11:20:50;99656.63;;;43.83;16.57
12897;BME280;6516;35.028;32.372;2023-07-13T11:23:30;99647.00;;;44.07;15.33
12897;BME280;6516;35.028;32.372;2023-07-13T11:25:58;99651.47;;;44.08;16.39
12897;BME280;6516;35.028;32.372;2023-07-13T11:28:31;99651.16;;;44.21;15.89
12897;BME280;6516;35.028;32.372;2023-07-13T11:31:14;99641.84;;;44.32;15.23
12897;BME280;6516;35.028;32.372;2023-07-13T11:33:56;99633.66;;;44.42;16.25
12897;BME280;6516;35.028;32.372;2023-07-13T11:36:31;99638.00;;;44.54;16.19
12897;BME280;6516;35.028;32.372;2023-07-13T11:39:05;99634.47;;;44.59;15.50
12897;BME280;6516;35.028;32.372;2023-07-13T11:41:45;99625.56;;;44.57;17.10
12897;BME280;6516;35.028;32.372;2023-07-13T11:44:19;99629.19;;;44.41;17.22
12897;BME280;6516;35.028;32.372;2023-07-13T11:46:49;99629.44;;;44.18;17.10
12897;BME280;6516;35.028;32.372;2023-07-13T11:49:19;99626.78;;;44.28;17.00
12897;BME280;6516;35.028;32.372;2023-07-13T11:51:49;99626.50;;;44.08;17.90
12897;BME280;6516;35.028;32.372;2023-07-13T11:54:27;99624.00;;;43.90;18.01
12897;BME280;6516;35.028;32.372;2023-07-13T11:56:59;99624.34;;;43.60;17.62
12897;BME280;6516;35.028;32.372;2023-07-13T11:59:32;99618.44;;;43.57;17.75
12897;BME280;6516;35.028;32.372;2023-07-13T12:02:01;99616.75;;;43.56;17.96
12897;BME280;6516;35.028;32.372;2023-07-13T12:04:31;99616.25;;;43.59;18.65
12897;BME280;6516;35.028;32.372;2023-07-13T12:07:06;99625.50;;;43.48;18.96
12897;BME280;6516;35.028;32.372;2023-07-13T12:09:42;99613.06;;;43.50;19.35
12897;BME280;6516;35.028;32.372;2023-07-13T12:12:12;99620.97;;;43.42;19.23
12897;BME280;6516;35.028;32.372;2023-07-13T12:14:40;99617.16;;;43.48;18.35
12897;BME280;6516;35.028;32.372;2023-07-13T12:17:20;99615.03;;;43.22;18.34
12897;BME280;6516;35.028;32.372;2023-07-13T12:19:50;99614.19;;;43.21;18.78
12897;BME280;6516;35.028;32.372;2023-07-13T12:22:21;99602.59;;;43.24;18.70
12897;BME280;6516;35.028;32.372;2023-07-13T12:24:49;99598.41;;;43.22;17.98
12897;BME280;6516;35.028;32.372;2023-07-13T12:27:20;99590.66;;;43.07;18.00
12897;BME280;6516;35.028;32.372;2023-07-13T12:29:52;99596.34;;;43.01;19.10
12897;BME280;6516;35.028;32.372;2023-07-13T12:32:27;99586.81;;;42.97;19.71
12897;BME280;6516;35.028;32.372;2023-07-13T12:34:57;99587.81;;;42.91;20.45
12897;BME280;6516;35.028;32.372;2023-07-13T12:37:43;99586.06;;;42.85;21.28
12897;BME280;6516;35.028;32.372;2023-07-13T12:40:14;99593.50;;;42.84;21.36
12897;BME280;6516;35.028;32.372;2023-07-13T12:42:46;99592.47;;;42.74;20.07
12897;BME280;6516;35.028;32.372;2023-07-13T12:45:18;99585.75;;;42.70;19.29
12897;BME280;6516;35.028;32.372;2023-07-13T12:47:50;99583.22;;;42.57;20.29
12897;BME280;6516;35.028;32.372;2023-07-13T12:50:23;99583.28;;;42.45;20.23
12897;BME280;6516;35.028;32.372;2023-07-13T12:53:03;99574.38;;;42.43;19.45
12897;BME280;6516;35.028;32.372;2023-07-13T12:55:41;99583.31;;;42.34;19.90
12897;BME280;6516;35.028;32.372;2023-07-13T12:58:17;99565.50;;;42.18;21.23
12897;BME280;6516;35.028;32.372;2023-07-13T13:00:54;99568.16;;;42.13;22.02
12897;BME280;6516;35.028;32.372;2023-07-13T13:03:28;99569.44;;;41.83;19.77
12897;BME280;6516;35.028;32.372;2023-07-13T13:05:59;99572.75;;;41.62;22.17
12897;BME280;6516;35.028;32.372;2023-07-13T13:08:31;99574.09;;;41.59;23.11
12897;BME280;6516;35.028;32.372;2023-07-13T13:10:59;99564.84;;;41.54;22.56
12897;BME280;6516;35.028;32.372;2023-07-13T13:13:28;99572.72;;;41.39;22.73
12897;BME280;6516;35.028;32.372;2023-07-13T13:15:55;99572.28;;;41.42;23.75